Terminal Aerodrome Forecast
Issued by NWS

Home | Current Version | Previous Version | Text Only | Print | Product List | Glossary On
Versions: 1 2 3 4 5 6 7 8 9 10 11 12 13 14 15 16 17 18 19 20 21 22
000
FTPA31 PHFO 012300
TAFJHM
TAF
PHJH 012338Z 0200/0224 04012KT P6SM FEW030 SCT050
     FM020400 02005KT P6SM FEW030 SCT050
     FM022000 04015KT P6SM FEW030 SCT050
      AMD NOT SKED AFT 020400=

USA.gov is the U.S. government's official web portal to all federal, state and local government web resources and services.